COOK1: Arkansas River Nr Coolidge, KS

                                SHEF ID:       COOK1     ARKANSAS R NR COOLIDGE, KS
STATION TYPE:
Regulating: Stage = 8.00, Flow = 2041

PRECIP STAGE STAGE(2) RIV-FLOW WTR-TEMP CONDUCT BAT-LOAD
in ft ft cfs F umho/cm volt
Ccp-Rev Ccp-Rev Ccp-Rev Ccp-Rev Ccp-Rev Ccp-Rev Ccp-Rev
(America/Chicago)
08/22 00:00 0.00 2.55 2.49 54 74.70 6314 13.00
08/22 01:00 0.00 2.54 2.49 53 73.80 6311 12.95
08/22 02:00 0.00 2.57 2.50 55 72.90 6323 12.95
08/22 03:00 0.00 2.54 2.48 53 72.25 6340 12.89
08/22 04:00 0.00 2.53 2.46 52 71.71 6354 12.89
08/22 05:00 0.00 2.51 2.46 51 71.08 6374 12.89
08/22 06:00 0.00 2.52 2.45 51 70.36 6394 12.89
08/22 07:00 0.00 2.51 2.45 51 69.69 6424 12.83
08/22 08:00 0.00 2.51 2.46 51 69.19 6440 12.83
08/22 09:00 0.00 2.53 2.46 52 69.35 6446 12.89
08/22 10:00 0.00 2.52 2.48 51 70.57 6449 13.36
08/22 11:00 0.00 2.53 2.48 52 72.73 6451 13.71
08/22 12:00 0.00 2.55 2.49 54 75.36 6442 13.77
08/22 13:00 0.00 2.56 2.52 55 78.04 6431 13.83
08/22 14:00 0.00 2.57 2.51 55 80.53 6419 13.83
08/22 15:00 0.00 2.57 2.51 55 82.53 6381 13.83
08/22 16:00 0.00 2.55 2.50 54 83.86 6363 13.71
08/22 17:00 0.00 2.54 2.49 53 84.34 6379 13.48
08/22 18:00 0.00 2.52 2.47 51 83.82 6408 13.30
08/22 19:00 0.00 2.50 2.45 50 81.72 6442 13.18
08/22 20:00 0.00 2.49 2.43 49 79.48 6487 13.07
08/22 21:00 0.00 2.48 2.44 48 77.63 6534 13.07
08/22 22:00 0.00 2.48 2.43 48 76.30 6572 13.00
08/22 23:00 ---- ---- ---- ---- ---- ---- ----
Data processed at Fri 23Aug2024 04:30 GMT

Parsing this webpage?

Checkout our new Data API! CWMSDataAPI (CDA)

Timeseries IDs (TSIDs)

TSIDs used from left to right in the data table
COOL.Precip-Inc.Total.1Hour.1Hour.Ccp-Rev
COOL.Stage.Inst.1Hour.0.Ccp-Rev
COOL.Stage-Alt.Inst.1Hour.0.Ccp-Rev
COOL.Flow.Inst.1Hour.0.Ccp-Rev
COOL.Temp-Water.Inst.1Hour.0.Ccp-Rev
COOL.Cond.Inst.1Hour.0.Ccp-Rev
COOL.Volt-Battery Load.Inst.1Hour.0.Ccp-Rev

                            

All information presented herein is the property of the government of the United States of America and may be revised or deleted at any time without prior notice. Dissemination of this information without the expressed written consent of the Public Affairs Office, Tulsa District U.S. Army Corps of Engineers is strictly prohibited. These data are gathered electronically and, as presented, have NOT undergone any form of quality control. These data are NOT guaranteed to be valid or correct.